sensor_id;sensor_type;location;lat;lon;timestamp;P1;durP1;ratioP1;P2;durP2;ratioP2
7517;SDS011;3800;48.922;9.444;2023-04-29T00:01:31;10.00;;;3.40;;
7517;SDS011;3800;48.922;9.444;2023-04-29T00:03:59;18.80;;;4.23;;
7517;SDS011;3800;48.922;9.444;2023-04-29T00:06:28;5.60;;;3.97;;
7517;SDS011;3800;48.922;9.444;2023-04-29T00:08:56;3.10;;;2.80;;
7517;SDS011;3800;48.922;9.444;2023-04-29T00:11:26;4.37;;;3.20;;
7517;SDS011;3800;48.922;9.444;2023-04-29T00:13:54;9.13;;;3.10;;
7517;SDS011;3800;48.922;9.444;2023-04-29T00:16:23;2.57;;;2.37;;
7517;SDS011;3800;48.922;9.444;2023-04-29T00:18:51;10.40;;;2.47;;
7517;SDS011;3800;48.922;9.444;2023-04-29T00:21:20;2.90;;;2.70;;
7517;SDS011;3800;48.922;9.444;2023-04-29T00:23:48;3.63;;;2.40;;
7517;SDS011;3800;48.922;9.444;2023-04-29T00:26:17;3.03;;;2.70;;
7517;SDS011;3800;48.922;9.444;2023-04-29T00:28:46;3.77;;;2.70;;
7517;SDS011;3800;48.922;9.444;2023-04-29T00:31:15;2.87;;;2.67;;
7517;SDS011;3800;48.922;9.444;2023-04-29T00:33:43;14.03;;;3.20;;
7517;SDS011;3800;48.922;9.444;2023-04-29T00:36:11;37.67;;;4.23;;
7517;SDS011;3800;48.922;9.444;2023-04-29T00:38:39;2.60;;;2.40;;
7517;SDS011;3800;48.922;9.444;2023-04-29T00:41:08;25.50;;;3.10;;
7517;SDS011;3800;48.922;9.444;2023-04-29T00:43:37;15.33;;;2.80;;
7517;SDS011;3800;48.922;9.444;2023-04-29T00:46:05;3.33;;;2.60;;
7517;SDS011;3800;48.922;9.444;2023-04-29T00:48:33;8.37;;;2.80;;
7517;SDS011;3800;48.922;9.444;2023-04-29T00:51:02;3.27;;;2.97;;
7517;SDS011;3800;48.922;9.444;2023-04-29T00:53:30;5.03;;;2.67;;
7517;SDS011;3800;48.922;9.444;2023-04-29T00:55:58;21.00;;;3.30;;
7517;SDS011;3800;48.922;9.444;2023-04-29T00:58:27;3.10;;;2.90;;
7517;SDS011;3800;48.922;9.444;2023-04-29T01:00:54;3.10;;;2.67;;
7517;SDS011;3800;48.922;9.444;2023-04-29T01:03:23;8.60;;;3.07;;
7517;SDS011;3800;48.922;9.444;2023-04-29T01:05:58;6.27;;;3.20;;
7517;SDS011;3800;48.922;9.444;2023-04-29T01:08:24;13.97;;;3.33;;
7517;SDS011;3800;48.922;9.444;2023-04-29T01:11:07;3.70;;;3.33;;
7517;SDS011;3800;48.922;9.444;2023-04-29T01:13:50;4.37;;;2.93;;
7517;SDS011;3800;48.922;9.444;2023-04-29T01:16:20;4.70;;;3.10;;
7517;SDS011;3800;48.922;9.444;2023-04-29T01:18:52;5.23;;;3.40;;
7517;SDS011;3800;48.922;9.444;2023-04-29T01:21:20;4.37;;;3.00;;
7517;SDS011;3800;48.922;9.444;2023-04-29T01:23:48;3.33;;;3.03;;
7517;SDS011;3800;48.922;9.444;2023-04-29T01:26:18;4.37;;;3.30;;
7517;SDS011;3800;48.922;9.444;2023-04-29T01:28:50;3.03;;;2.83;;
7517;SDS011;3800;48.922;9.444;2023-04-29T01:31:27;3.07;;;2.77;;
7517;SDS011;3800;48.922;9.444;2023-04-29T01:34:02;3.10;;;2.90;;
7517;SDS011;3800;48.922;9.444;2023-04-29T01:36:42;4.80;;;3.27;;
7517;SDS011;3800;48.922;9.444;2023-04-29T01:41:58;3.50;;;3.20;;
7517;SDS011;3800;48.922;9.444;2023-04-29T01:44:28;3.40;;;3.10;;
7517;SDS011;3800;48.922;9.444;2023-04-29T01:46:56;11.90;;;3.33;;
7517;SDS011;3800;48.922;9.444;2023-04-29T01:49:25;3.13;;;2.93;;
7517;SDS011;3800;48.922;9.444;2023-04-29T01:51:54;6.27;;;2.67;;
7517;SDS011;3800;48.922;9.444;2023-04-29T01:54:22;2.67;;;2.30;;
7517;SDS011;3800;48.922;9.444;2023-04-29T01:56:50;3.47;;;2.97;;
7517;SDS011;3800;48.922;9.444;2023-04-29T01:59:18;24.17;;;3.10;;
7517;SDS011;3800;48.922;9.444;2023-04-29T02:01:47;3.10;;;2.90;;
7517;SDS011;3800;48.922;9.444;2023-04-29T02:04:16;2.57;;;2.37;;
7517;SDS011;3800;48.922;9.444;2023-04-29T02:06:44;3.63;;;3.00;;
7517;SDS011;3800;48.922;9.444;2023-04-29T02:09:13;2.63;;;2.40;;
7517;SDS011;3800;48.922;9.444;2023-04-29T02:11:41;5.00;;;2.77;;
7517;SDS011;3800;48.922;9.444;2023-04-29T02:14:09;3.20;;;3.00;;
7517;SDS011;3800;48.922;9.444;2023-04-29T02:16:38;3.40;;;3.10;;
7517;SDS011;3800;48.922;9.444;2023-04-29T02:19:06;3.93;;;3.63;;
7517;SDS011;3800;48.922;9.444;2023-04-29T02:21:34;3.90;;;3.60;;
7517;SDS011;3800;48.922;9.444;2023-04-29T02:24:02;3.27;;;3.07;;
7517;SDS011;3800;48.922;9.444;2023-04-29T02:26:31;3.30;;;3.10;;
7517;SDS011;3800;48.922;9.444;2023-04-29T02:29:00;3.27;;;3.03;;
7517;SDS011;3800;48.922;9.444;2023-04-29T02:31:28;3.23;;;2.93;;
7517;SDS011;3800;48.922;9.444;2023-04-29T02:33:56;3.47;;;3.20;;
7517;SDS011;3800;48.922;9.444;2023-04-29T02:36:25;4.47;;;4.07;;
7517;SDS011;3800;48.922;9.444;2023-04-29T02:38:53;3.63;;;3.33;;
7517;SDS011;3800;48.922;9.444;2023-04-29T02:41:21;3.60;;;3.27;;
7517;SDS011;3800;48.922;9.444;2023-04-29T02:43:49;7.03;;;3.80;;
7517;SDS011;3800;48.922;9.444;2023-04-29T02:46:17;4.77;;;3.40;;
7517;SDS011;3800;48.922;9.444;2023-04-29T02:48:47;11.50;;;3.33;;
7517;SDS011;3800;48.922;9.444;2023-04-29T02:51:15;4.20;;;3.40;;
7517;SDS011;3800;48.922;9.444;2023-04-29T02:53:43;5.77;;;3.63;;
7517;SDS011;3800;48.922;9.444;2023-04-29T02:56:11;4.23;;;3.60;;
7517;SDS011;3800;48.922;9.444;2023-04-29T02:58:40;3.60;;;3.30;;
7517;SDS011;3800;48.922;9.444;2023-04-29T03:01:08;4.00;;;3.63;;
7517;SDS011;3800;48.922;9.444;2023-04-29T03:03:36;14.20;;;3.67;;
7517;SDS011;3800;48.922;9.444;2023-04-29T03:06:04;7.87;;;3.17;;
7517;SDS011;3800;48.922;9.444;2023-04-29T03:08:33;3.70;;;2.70;;
7517;SDS011;3800;48.922;9.444;2023-04-29T03:11:02;2.90;;;2.70;;
7517;SDS011;3800;48.922;9.444;2023-04-29T03:13:30;19.57;;;3.27;;
7517;SDS011;3800;48.922;9.444;2023-04-29T03:15:59;11.43;;;3.20;;
7517;SDS011;3800;48.922;9.444;2023-04-29T03:18:27;3.50;;;3.20;;
7517;SDS011;3800;48.922;9.444;2023-04-29T03:20:55;17.10;;;4.20;;
7517;SDS011;3800;48.922;9.444;2023-04-29T03:23:24;4.73;;;4.30;;
7517;SDS011;3800;48.922;9.444;2023-04-29T03:25:52;11.53;;;4.60;;
7517;SDS011;3800;48.922;9.444;2023-04-29T03:28:21;15.53;;;4.77;;
7517;SDS011;3800;48.922;9.444;2023-04-29T03:30:49;5.60;;;4.80;;
7517;SDS011;3800;48.922;9.444;2023-04-29T03:33:17;5.93;;;4.20;;
7517;SDS011;3800;48.922;9.444;2023-04-29T03:35:45;4.83;;;4.23;;
7517;SDS011;3800;48.922;9.444;2023-04-29T03:38:14;10.63;;;4.73;;
7517;SDS011;3800;48.922;9.444;2023-04-29T03:40:42;15.87;;;5.20;;
7517;SDS011;3800;48.922;9.444;2023-04-29T03:43:10;6.83;;;4.77;;
7517;SDS011;3800;48.922;9.444;2023-04-29T03:45:39;5.77;;;4.93;;
7517;SDS011;3800;48.922;9.444;2023-04-29T03:48:08;7.80;;;5.03;;
7517;SDS011;3800;48.922;9.444;2023-04-29T03:50:36;7.00;;;5.13;;
7517;SDS011;3800;48.922;9.444;2023-04-29T03:53:04;17.70;;;4.97;;
7517;SDS011;3800;48.922;9.444;2023-04-29T03:55:33;6.80;;;4.70;;
7517;SDS011;3800;48.922;9.444;2023-04-29T03:58:01;6.50;;;3.80;;
7517;SDS011;3800;48.922;9.444;2023-04-29T04:00:30;4.90;;;3.50;;
7517;SDS011;3800;48.922;9.444;2023-04-29T04:02:58;3.50;;;3.20;;
7517;SDS011;3800;48.922;9.444;2023-04-29T04:05:26;3.20;;;3.00;;
7517;SDS011;3800;48.922;9.444;2023-04-29T04:07:54;3.00;;;2.80;;
7517;SDS011;3800;48.922;9.444;2023-04-29T04:10:23;4.43;;;3.63;;
7517;SDS011;3800;48.922;9.444;2023-04-29T04:12:51;3.80;;;3.27;;
7517;SDS011;3800;48.922;9.444;2023-04-29T04:15:19;5.10;;;4.60;;
7517;SDS011;3800;48.922;9.444;2023-04-29T04:17:48;6.20;;;4.20;;
7517;SDS011;3800;48.922;9.444;2023-04-29T04:20:16;4.40;;;4.00;;
7517;SDS011;3800;48.922;9.444;2023-04-29T04:22:45;4.87;;;4.03;;
7517;SDS011;3800;48.922;9.444;2023-04-29T04:25:14;4.60;;;3.73;;
7517;SDS011;3800;48.922;9.444;2023-04-29T04:27:43;5.80;;;4.50;;
7517;SDS011;3800;48.922;9.444;2023-04-29T04:30:11;6.63;;;3.90;;
7517;SDS011;3800;48.922;9.444;2023-04-29T04:32:39;7.97;;;4.50;;
7517;SDS011;3800;48.922;9.444;2023-04-29T04:35:08;4.80;;;4.30;;
7517;SDS011;3800;48.922;9.444;2023-04-29T04:37:36;4.47;;;4.07;;
7517;SDS011;3800;48.922;9.444;2023-04-29T04:40:04;4.43;;;4.03;;
7517;SDS011;3800;48.922;9.444;2023-04-29T04:42:34;6.40;;;3.80;;
7517;SDS011;3800;48.922;9.444;2023-04-29T04:45:03;4.37;;;3.80;;
7517;SDS011;3800;48.922;9.444;2023-04-29T04:47:32;4.13;;;3.83;;
7517;SDS011;3800;48.922;9.444;2023-04-29T04:50:00;3.80;;;3.50;;
7517;SDS011;3800;48.922;9.444;2023-04-29T04:52:28;3.93;;;3.63;;
7517;SDS011;3800;48.922;9.444;2023-04-29T04:54:56;3.63;;;3.33;;
7517;SDS011;3800;48.922;9.444;2023-04-29T04:57:25;4.00;;;3.70;;
7517;SDS011;3800;48.922;9.444;2023-04-29T04:59:53;4.30;;;3.90;;
7517;SDS011;3800;48.922;9.444;2023-04-29T05:02:21;4.43;;;3.33;;
7517;SDS011;3800;48.922;9.444;2023-04-29T05:04:50;5.23;;;4.83;;
7517;SDS011;3800;48.922;9.444;2023-04-29T05:07:18;6.50;;;5.87;;
7517;SDS011;3800;48.922;9.444;2023-04-29T05:09:47;7.60;;;6.60;;
7517;SDS011;3800;48.922;9.444;2023-04-29T05:12:15;7.23;;;6.53;;
7517;SDS011;3800;48.922;9.444;2023-04-29T05:14:43;8.13;;;6.80;;
7517;SDS011;3800;48.922;9.444;2023-04-29T05:17:12;7.97;;;7.17;;
7517;SDS011;3800;48.922;9.444;2023-04-29T05:19:41;8.27;;;7.47;;
7517;SDS011;3800;48.922;9.444;2023-04-29T05:22:10;8.77;;;7.87;;
7517;SDS011;3800;48.922;9.444;2023-04-29T05:24:38;8.30;;;7.57;;
7517;SDS011;3800;48.922;9.444;2023-04-29T05:27:07;8.50;;;7.70;;
7517;SDS011;3800;48.922;9.444;2023-04-29T05:29:35;8.17;;;7.37;;
7517;SDS011;3800;48.922;9.444;2023-04-29T05:32:04;8.90;;;7.43;;
7517;SDS011;3800;48.922;9.444;2023-04-29T05:34:32;10.43;;;8.20;;
7517;SDS011;3800;48.922;9.444;2023-04-29T05:37:00;8.73;;;7.93;;
7517;SDS011;3800;48.922;9.444;2023-04-29T05:39:29;10.23;;;9.10;;
7517;SDS011;3800;48.922;9.444;2023-04-29T05:41:57;10.47;;;9.27;;
7517;SDS011;3800;48.922;9.444;2023-04-29T05:44:26;11.20;;;10.03;;
7517;SDS011;3800;48.922;9.444;2023-04-29T05:46:55;11.47;;;10.27;;
7517;SDS011;3800;48.922;9.444;2023-04-29T05:49:23;15.27;;;11.00;;
7517;SDS011;3800;48.922;9.444;2023-04-29T05:51:51;16.93;;;12.50;;
7517;SDS011;3800;48.922;9.444;2023-04-29T05:54:20;14.60;;;12.03;;
7517;SDS011;3800;48.922;9.444;2023-04-29T05:56:48;15.20;;;12.80;;
7517;SDS011;3800;48.922;9.444;2023-04-29T05:59:17;16.67;;;12.93;;
7517;SDS011;3800;48.922;9.444;2023-04-29T06:01:45;16.50;;;13.60;;
7517;SDS011;3800;48.922;9.444;2023-04-29T06:04:13;16.07;;;13.73;;
7517;SDS011;3800;48.922;9.444;2023-04-29T06:06:42;17.27;;;14.47;;
7517;SDS011;3800;48.922;9.444;2023-04-29T06:09:11;17.23;;;14.77;;
7517;SDS011;3800;48.922;9.444;2023-04-29T06:11:39;17.30;;;15.17;;
7517;SDS011;3800;48.922;9.444;2023-04-29T06:14:07;18.37;;;14.87;;
7517;SDS011;3800;48.922;9.444;2023-04-29T06:16:36;16.30;;;13.93;;
7517;SDS011;3800;48.922;9.444;2023-04-29T06:19:04;15.70;;;14.10;;
7517;SDS011;3800;48.922;9.444;2023-04-29T06:21:32;15.73;;;14.23;;
7517;SDS011;3800;48.922;9.444;2023-04-29T06:24:00;14.37;;;13.00;;
7517;SDS011;3800;48.922;9.444;2023-04-29T06:26:29;16.07;;;12.63;;
7517;SDS011;3800;48.922;9.444;2023-04-29T06:28:57;12.80;;;11.60;;
7517;SDS011;3800;48.922;9.444;2023-04-29T06:31:25;13.33;;;11.83;;
7517;SDS011;3800;48.922;9.444;2023-04-29T06:33:53;13.20;;;11.90;;
7517;SDS011;3800;48.922;9.444;2023-04-29T06:36:22;13.87;;;12.50;;
7517;SDS011;3800;48.922;9.444;2023-04-29T06:38:50;14.27;;;12.83;;
7517;SDS011;3800;48.922;9.444;2023-04-29T06:41:18;12.87;;;11.63;;
7517;SDS011;3800;48.922;9.444;2023-04-29T06:43:46;14.00;;;12.60;;
7517;SDS011;3800;48.922;9.444;2023-04-29T06:46:15;14.97;;;13.47;;
7517;SDS011;3800;48.922;9.444;2023-04-29T06:48:44;12.77;;;11.57;;
7517;SDS011;3800;48.922;9.444;2023-04-29T06:51:12;12.17;;;10.97;;
7517;SDS011;3800;48.922;9.444;2023-04-29T06:53:41;12.10;;;11.00;;
7517;SDS011;3800;48.922;9.444;2023-04-29T06:56:09;11.67;;;10.57;;
7517;SDS011;3800;48.922;9.444;2023-04-29T06:58:38;11.67;;;10.47;;
7517;SDS011;3800;48.922;9.444;2023-04-29T07:01:07;10.53;;;9.53;;
7517;SDS011;3800;48.922;9.444;2023-04-29T07:03:35;9.57;;;8.77;;
7517;SDS011;3800;48.922;9.444;2023-04-29T07:06:04;9.23;;;8.43;;
7517;SDS011;3800;48.922;9.444;2023-04-29T07:08:32;8.63;;;7.60;;
7517;SDS011;3800;48.922;9.444;2023-04-29T07:11:00;7.80;;;7.20;;
7517;SDS011;3800;48.922;9.444;2023-04-29T07:13:33;7.23;;;6.63;;
7517;SDS011;3800;48.922;9.444;2023-04-29T07:16:01;7.50;;;6.80;;
7517;SDS011;3800;48.922;9.444;2023-04-29T07:18:32;6.80;;;6.00;;
7517;SDS011;3800;48.922;9.444;2023-04-29T07:21:06;6.60;;;5.90;;
7517;SDS011;3800;48.922;9.444;2023-04-29T07:23:34;8.47;;;6.67;;
7517;SDS011;3800;48.922;9.444;2023-04-29T07:26:11;6.33;;;5.73;;
7517;SDS011;3800;48.922;9.444;2023-04-29T07:28:39;4.90;;;4.50;;
7517;SDS011;3800;48.922;9.444;2023-04-29T07:31:07;7.13;;;4.50;;
7517;SDS011;3800;48.922;9.444;2023-04-29T07:33:35;5.63;;;4.80;;
7517;SDS011;3800;48.922;9.444;2023-04-29T07:36:05;5.57;;;5.07;;
7517;SDS011;3800;48.922;9.444;2023-04-29T07:38:33;4.87;;;4.47;;
7517;SDS011;3800;48.922;9.444;2023-04-29T07:41:01;5.70;;;5.13;;
7517;SDS011;3800;48.922;9.444;2023-04-29T07:43:29;13.80;;;5.37;;
7517;SDS011;3800;48.922;9.444;2023-04-29T07:45:58;9.97;;;5.80;;
7517;SDS011;3800;48.922;9.444;2023-04-29T07:48:27;9.83;;;4.30;;
7517;SDS011;3800;48.922;9.444;2023-04-29T07:50:55;8.13;;;4.83;;
7517;SDS011;3800;48.922;9.444;2023-04-29T07:53:24;6.30;;;4.47;;
7517;SDS011;3800;48.922;9.444;2023-04-29T07:55:52;4.87;;;4.37;;
7517;SDS011;3800;48.922;9.444;2023-04-29T07:58:21;23.33;;;6.00;;
7517;SDS011;3800;48.922;9.444;2023-04-29T08:00:49;5.83;;;4.47;;
7517;SDS011;3800;48.922;9.444;2023-04-29T08:03:18;22.97;;;6.20;;
7517;SDS011;3800;48.922;9.444;2023-04-29T08:05:46;17.77;;;11.27;;
7517;SDS011;3800;48.922;9.444;2023-04-29T08:08:14;13.53;;;8.83;;
7517;SDS011;3800;48.922;9.444;2023-04-29T08:10:43;7.37;;;5.03;;
7517;SDS011;3800;48.922;9.444;2023-04-29T08:13:11;13.53;;;8.83;;
7517;SDS011;3800;48.922;9.444;2023-04-29T08:15:39;12.43;;;11.13;;
7517;SDS011;3800;48.922;9.444;2023-04-29T08:18:08;6.67;;;5.77;;
7517;SDS011;3800;48.922;9.444;2023-04-29T08:20:36;7.27;;;6.20;;
7517;SDS011;3800;48.922;9.444;2023-04-29T08:23:05;6.50;;;5.70;;
7517;SDS011;3800;48.922;9.444;2023-04-29T08:25:34;6.77;;;5.40;;
7517;SDS011;3800;48.922;9.444;2023-04-29T08:28:03;6.87;;;4.90;;
7517;SDS011;3800;48.922;9.444;2023-04-29T08:30:31;5.27;;;4.67;;
7517;SDS011;3800;48.922;9.444;2023-04-29T08:32:59;5.10;;;4.60;;
7517;SDS011;3800;48.922;9.444;2023-04-29T08:35:27;8.23;;;6.57;;
7517;SDS011;3800;48.922;9.444;2023-04-29T08:37:56;5.53;;;4.83;;
7517;SDS011;3800;48.922;9.444;2023-04-29T08:40:24;5.20;;;4.70;;
7517;SDS011;3800;48.922;9.444;2023-04-29T08:42:52;5.13;;;4.53;;
7517;SDS011;3800;48.922;9.444;2023-04-29T08:45:20;5.27;;;4.60;;
7517;SDS011;3800;48.922;9.444;2023-04-29T08:47:49;4.87;;;4.37;;
7517;SDS011;3800;48.922;9.444;2023-04-29T08:50:17;4.73;;;4.23;;
7517;SDS011;3800;48.922;9.444;2023-04-29T08:52:45;6.70;;;4.93;;
7517;SDS011;3800;48.922;9.444;2023-04-29T08:55:14;5.27;;;4.47;;
7517;SDS011;3800;48.922;9.444;2023-04-29T08:57:43;5.37;;;4.53;;
7517;SDS011;3800;48.922;9.444;2023-04-29T09:00:11;5.80;;;4.87;;
7517;SDS011;3800;48.922;9.444;2023-04-29T09:02:42;6.67;;;4.80;;
7517;SDS011;3800;48.922;9.444;2023-04-29T09:05:09;4.53;;;4.10;;
7517;SDS011;3800;48.922;9.444;2023-04-29T09:07:37;5.00;;;4.50;;
7517;SDS011;3800;48.922;9.444;2023-04-29T09:10:05;4.90;;;4.40;;
7517;SDS011;3800;48.922;9.444;2023-04-29T09:12:34;4.83;;;4.43;;
7517;SDS011;3800;48.922;9.444;2023-04-29T09:15:03;5.43;;;4.90;;
7517;SDS011;3800;48.922;9.444;2023-04-29T09:17:48;8.50;;;6.77;;
7517;SDS011;3800;48.922;9.444;2023-04-29T09:20:26;8.83;;;7.93;;
7517;SDS011;3800;48.922;9.444;2023-04-29T09:22:58;6.67;;;5.97;;
7517;SDS011;3800;48.922;9.444;2023-04-29T09:25:27;7.40;;;6.60;;
7517;SDS011;3800;48.922;9.444;2023-04-29T09:27:55;10.57;;;8.30;;
7517;SDS011;3800;48.922;9.444;2023-04-29T09:30:23;9.13;;;7.03;;
7517;SDS011;3800;48.922;9.444;2023-04-29T09:35:32;7.90;;;7.10;;
7517;SDS011;3800;48.922;9.444;2023-04-29T09:38:09;8.77;;;7.80;;
7517;SDS011;3800;48.922;9.444;2023-04-29T09:40:40;7.47;;;4.80;;
7517;SDS011;3800;48.922;9.444;2023-04-29T09:43:11;8.30;;;6.07;;
7517;SDS011;3800;48.922;9.444;2023-04-29T09:45:39;9.10;;;7.67;;
7517;SDS011;3800;48.922;9.444;2023-04-29T09:48:07;6.07;;;5.47;;
7517;SDS011;3800;48.922;9.444;2023-04-29T09:50:35;7.47;;;6.67;;
7517;SDS011;3800;48.922;9.444;2023-04-29T09:53:04;9.57;;;7.13;;
7517;SDS011;3800;48.922;9.444;2023-04-29T09:55:32;11.17;;;9.37;;
7517;SDS011;3800;48.922;9.444;2023-04-29T09:58:28;15.73;;;12.57;;
7517;SDS011;3800;48.922;9.444;2023-04-29T10:00:58;10.43;;;8.83;;
7517;SDS011;3800;48.922;9.444;2023-04-29T10:03:28;5.23;;;4.73;;
7517;SDS011;3800;48.922;9.444;2023-04-29T10:06:02;7.50;;;6.23;;
7517;SDS011;3800;48.922;9.444;2023-04-29T10:08:30;11.27;;;8.87;;
7517;SDS011;3800;48.922;9.444;2023-04-29T10:11:01;9.37;;;8.13;;
7517;SDS011;3800;48.922;9.444;2023-04-29T10:13:29;8.20;;;7.30;;
7517;SDS011;3800;48.922;9.444;2023-04-29T10:16:02;9.67;;;6.73;;
7517;SDS011;3800;48.922;9.444;2023-04-29T10:18:34;10.20;;;8.60;;
7517;SDS011;3800;48.922;9.444;2023-04-29T10:21:02;8.37;;;7.47;;
7517;SDS011;3800;48.922;9.444;2023-04-29T10:23:31;7.77;;;6.53;;
7517;SDS011;3800;48.922;9.444;2023-04-29T10:25:59;7.67;;;5.70;;
7517;SDS011;3800;48.922;9.444;2023-04-29T10:28:27;6.23;;;5.63;;
7517;SDS011;3800;48.922;9.444;2023-04-29T10:31:00;5.73;;;5.23;;
7517;SDS011;3800;48.922;9.444;2023-04-29T10:33:30;7.00;;;5.73;;
7517;SDS011;3800;48.922;9.444;2023-04-29T10:35:58;6.40;;;5.80;;
7517;SDS011;3800;48.922;9.444;2023-04-29T10:38:32;6.30;;;5.80;;
7517;SDS011;3800;48.922;9.444;2023-04-29T10:41:01;6.83;;;6.23;;
7517;SDS011;3800;48.922;9.444;2023-04-29T10:43:28;6.80;;;6.03;;
7517;SDS011;3800;48.922;9.444;2023-04-29T10:48:45;5.77;;;5.17;;
7517;SDS011;3800;48.922;9.444;2023-04-29T10:51:16;9.47;;;7.90;;
7517;SDS011;3800;48.922;9.444;2023-04-29T10:53:58;6.40;;;5.37;;
7517;SDS011;3800;48.922;9.444;2023-04-29T10:59:04;6.00;;;5.40;;
7517;SDS011;3800;48.922;9.444;2023-04-29T11:04:08;5.77;;;5.10;;
7517;SDS011;3800;48.922;9.444;2023-04-29T11:06:37;5.53;;;4.90;;
7517;SDS011;3800;48.922;9.444;2023-04-29T11:09:08;7.83;;;5.40;;
7517;SDS011;3800;48.922;9.444;2023-04-29T11:11:42;6.93;;;6.27;;
7517;SDS011;3800;48.922;9.444;2023-04-29T11:14:13;9.80;;;7.27;;
7517;SDS011;3800;48.922;9.444;2023-04-29T11:16:46;8.67;;;7.40;;
7517;SDS011;3800;48.922;9.444;2023-04-29T11:19:15;7.73;;;5.00;;
7517;SDS011;3800;48.922;9.444;2023-04-29T11:21:44;5.13;;;4.73;;
7517;SDS011;3800;48.922;9.444;2023-04-29T11:24:12;6.97;;;6.27;;
7517;SDS011;3800;48.922;9.444;2023-04-29T11:26:40;7.80;;;6.57;;
7517;SDS011;3800;48.922;9.444;2023-04-29T11:29:09;5.50;;;4.93;;
7517;SDS011;3800;48.922;9.444;2023-04-29T11:31:37;6.67;;;5.93;;
7517;SDS011;3800;48.922;9.444;2023-04-29T11:34:05;6.00;;;5.10;;
7517;SDS011;3800;48.922;9.444;2023-04-29T11:36:34;6.37;;;4.90;;
7517;SDS011;3800;48.922;9.444;2023-04-29T11:39:03;5.70;;;5.20;;
7517;SDS011;3800;48.922;9.444;2023-04-29T11:41:31;5.97;;;5.37;;
7517;SDS011;3800;48.922;9.444;2023-04-29T11:43:59;4.80;;;4.40;;
7517;SDS011;3800;48.922;9.444;2023-04-29T11:46:30;4.90;;;4.40;;
7517;SDS011;3800;48.922;9.444;2023-04-29T11:48:58;5.10;;;4.50;;
7517;SDS011;3800;48.922;9.444;2023-04-29T11:51:26;5.70;;;5.00;;
7517;SDS011;3800;48.922;9.444;2023-04-29T11:53:55;5.80;;;4.93;;
7517;SDS011;3800;48.922;9.444;2023-04-29T11:56:24;6.87;;;4.70;;
7517;SDS011;3800;48.922;9.444;2023-04-29T11:58:52;5.23;;;4.73;;
7517;SDS011;3800;48.922;9.444;2023-04-29T12:01:20;6.13;;;5.53;;
7517;SDS011;3800;48.922;9.444;2023-04-29T12:03:48;5.87;;;5.27;;
7517;SDS011;3800;48.922;9.444;2023-04-29T12:06:17;6.37;;;5.77;;
7517;SDS011;3800;48.922;9.444;2023-04-29T12:08:45;7.23;;;4.77;;
7517;SDS011;3800;48.922;9.444;2023-04-29T12:11:14;5.60;;;5.07;;
7517;SDS011;3800;48.922;9.444;2023-04-29T12:13:42;5.17;;;4.70;;
7517;SDS011;3800;48.922;9.444;2023-04-29T12:16:11;6.57;;;5.03;;
7517;SDS011;3800;48.922;9.444;2023-04-29T12:18:39;5.30;;;4.80;;
7517;SDS011;3800;48.922;9.444;2023-04-29T12:21:07;5.83;;;5.27;;
7517;SDS011;3800;48.922;9.444;2023-04-29T12:23:35;6.33;;;4.43;;
7517;SDS011;3800;48.922;9.444;2023-04-29T12:26:04;6.23;;;5.63;;
7517;SDS011;3800;48.922;9.444;2023-04-29T12:28:33;6.17;;;5.57;;
7517;SDS011;3800;48.922;9.444;2023-04-29T12:31:02;5.60;;;5.00;;
7517;SDS011;3800;48.922;9.444;2023-04-29T12:33:30;5.80;;;5.20;;
7517;SDS011;3800;48.922;9.444;2023-04-29T12:35:58;8.90;;;6.43;;
7517;SDS011;3800;48.922;9.444;2023-04-29T12:38:28;6.13;;;5.63;;
7517;SDS011;3800;48.922;9.444;2023-04-29T12:40:57;8.20;;;6.57;;
7517;SDS011;3800;48.922;9.444;2023-04-29T12:43:27;6.43;;;5.83;;
7517;SDS011;3800;48.922;9.444;2023-04-29T12:48:30;6.73;;;5.87;;
7517;SDS011;3800;48.922;9.444;2023-04-29T12:50:59;6.83;;;6.13;;
7517;SDS011;3800;48.922;9.444;2023-04-29T12:53:28;6.50;;;5.63;;
7517;SDS011;3800;48.922;9.444;2023-04-29T12:55:56;6.63;;;6.03;;
7517;SDS011;3800;48.922;9.444;2023-04-29T12:58:27;7.47;;;6.80;;
7517;SDS011;3800;48.922;9.444;2023-04-29T13:00:56;7.83;;;7.03;;
7517;SDS011;3800;48.922;9.444;2023-04-29T13:03:25;6.77;;;6.07;;
7517;SDS011;3800;48.922;9.444;2023-04-29T13:05:53;7.40;;;6.57;;
7517;SDS011;3800;48.922;9.444;2023-04-29T13:08:22;8.00;;;7.20;;
7517;SDS011;3800;48.922;9.444;2023-04-29T13:10:50;6.90;;;6.30;;
7517;SDS011;3800;48.922;9.444;2023-04-29T13:13:18;8.47;;;7.60;;
7517;SDS011;3800;48.922;9.444;2023-04-29T13:15:47;7.57;;;6.77;;
7517;SDS011;3800;48.922;9.444;2023-04-29T13:18:15;8.13;;;7.43;;
7517;SDS011;3800;48.922;9.444;2023-04-29T13:20:43;8.13;;;7.30;;
7517;SDS011;3800;48.922;9.444;2023-04-29T13:23:11;8.03;;;7.20;;
7517;SDS011;3800;48.922;9.444;2023-04-29T13:25:40;8.43;;;7.63;;
7517;SDS011;3800;48.922;9.444;2023-04-29T13:28:08;8.17;;;7.47;;
7517;SDS011;3800;48.922;9.444;2023-04-29T13:30:36;8.70;;;7.70;;
7517;SDS011;3800;48.922;9.444;2023-04-29T13:33:04;7.87;;;7.17;;
7517;SDS011;3800;48.922;9.444;2023-04-29T13:35:33;10.43;;;7.00;;
7517;SDS011;3800;48.922;9.444;2023-04-29T13:38:02;7.40;;;6.60;;
7517;SDS011;3800;48.922;9.444;2023-04-29T13:40:30;7.90;;;7.00;;
7517;SDS011;3800;48.922;9.444;2023-04-29T13:42:58;6.80;;;6.13;;
7517;SDS011;3800;48.922;9.444;2023-04-29T13:45:27;6.87;;;6.10;;
7517;SDS011;3800;48.922;9.444;2023-04-29T13:47:55;8.37;;;6.30;;
7517;SDS011;3800;48.922;9.444;2023-04-29T13:50:23;7.83;;;6.50;;
7517;SDS011;3800;48.922;9.444;2023-04-29T13:52:51;8.33;;;7.53;;
7517;SDS011;3800;48.922;9.444;2023-04-29T13:55:20;8.30;;;7.17;;
7517;SDS011;3800;48.922;9.444;2023-04-29T13:57:48;8.87;;;7.03;;
7517;SDS011;3800;48.922;9.444;2023-04-29T14:00:16;9.23;;;7.70;;
7517;SDS011;3800;48.922;9.444;2023-04-29T14:02:44;10.10;;;7.40;;
7517;SDS011;3800;48.922;9.444;2023-04-29T14:05:13;9.03;;;8.13;;
7517;SDS011;3800;48.922;9.444;2023-04-29T14:07:41;9.27;;;7.90;;
7517;SDS011;3800;48.922;9.444;2023-04-29T14:10:09;8.63;;;7.37;;
7517;SDS011;3800;48.922;9.444;2023-04-29T14:12:37;9.40;;;7.87;;
7517;SDS011;3800;48.922;9.444;2023-04-29T14:15:06;9.17;;;7.90;;
7517;SDS011;3800;48.922;9.444;2023-04-29T14:17:34;10.03;;;8.47;;
7517;SDS011;3800;48.922;9.444;2023-04-29T14:20:03;8.93;;;8.13;;
7517;SDS011;3800;48.922;9.444;2023-04-29T14:22:31;8.27;;;7.10;;
7517;SDS011;3800;48.922;9.444;2023-04-29T14:25:00;7.87;;;7.07;;
7517;SDS011;3800;48.922;9.444;2023-04-29T14:27:28;9.47;;;7.27;;
7517;SDS011;3800;48.922;9.444;2023-04-29T14:29:56;8.17;;;7.37;;
7517;SDS011;3800;48.922;9.444;2023-04-29T14:32:24;7.53;;;6.73;;
7517;SDS011;3800;48.922;9.444;2023-04-29T14:34:54;8.43;;;7.20;;
7517;SDS011;3800;48.922;9.444;2023-04-29T14:37:22;8.03;;;7.23;;
7517;SDS011;3800;48.922;9.444;2023-04-29T14:39:51;8.00;;;7.20;;
7517;SDS011;3800;48.922;9.444;2023-04-29T14:42:19;8.30;;;7.50;;
7517;SDS011;3800;48.922;9.444;2023-04-29T14:44:48;9.37;;;7.43;;
7517;SDS011;3800;48.922;9.444;2023-04-29T14:47:16;11.37;;;8.47;;
7517;SDS011;3800;48.922;9.444;2023-04-29T14:49:45;9.03;;;8.13;;
7517;SDS011;3800;48.922;9.444;2023-04-29T14:52:14;11.63;;;8.30;;
7517;SDS011;3800;48.922;9.444;2023-04-29T14:54:42;9.23;;;7.20;;
7517;SDS011;3800;48.922;9.444;2023-04-29T14:57:10;8.80;;;7.53;;
7517;SDS011;3800;48.922;9.444;2023-04-29T14:59:39;8.97;;;7.40;;
7517;SDS011;3800;48.922;9.444;2023-04-29T15:02:09;10.97;;;8.07;;
7517;SDS011;3800;48.922;9.444;2023-04-29T15:04:38;9.37;;;8.17;;
7517;SDS011;3800;48.922;9.444;2023-04-29T15:07:07;10.47;;;7.80;;
7517;SDS011;3800;48.922;9.444;2023-04-29T15:09:36;9.80;;;7.87;;
7517;SDS011;3800;48.922;9.444;2023-04-29T15:12:04;9.17;;;7.67;;
7517;SDS011;3800;48.922;9.444;2023-04-29T15:14:32;8.43;;;7.53;;
7517;SDS011;3800;48.922;9.444;2023-04-29T15:17:01;9.03;;;8.13;;
7517;SDS011;3800;48.922;9.444;2023-04-29T15:19:29;11.47;;;8.40;;
7517;SDS011;3800;48.922;9.444;2023-04-29T15:21:57;9.13;;;7.03;;
7517;SDS011;3800;48.922;9.444;2023-04-29T15:24:26;8.47;;;7.37;;
7517;SDS011;3800;48.922;9.444;2023-04-29T15:26:54;8.47;;;7.50;;
7517;SDS011;3800;48.922;9.444;2023-04-29T15:29:23;11.57;;;7.40;;
7517;SDS011;3800;48.922;9.444;2023-04-29T15:31:51;10.20;;;7.83;;
7517;SDS011;3800;48.922;9.444;2023-04-29T15:34:19;10.23;;;8.10;;
7517;SDS011;3800;48.922;9.444;2023-04-29T15:36:47;8.93;;;7.80;;